createdAt,value
2018-05-27T00:01:12.282Z,94.00
2018-05-27T00:03:39.854Z,94.00
2018-05-27T00:06:07.613Z,94.00
2018-05-27T00:08:35.346Z,94.20
2018-05-27T00:11:02.921Z,93.90
2018-05-27T00:13:30.527Z,93.80
2018-05-27T00:15:58.106Z,94.00
2018-05-27T00:18:25.682Z,94.00
2018-05-27T00:20:53.269Z,94.00
2018-05-27T00:23:20.964Z,94.00
2018-05-27T00:25:48.541Z,94.00
2018-05-27T00:28:16.085Z,94.00
2018-05-27T00:30:44.444Z,94.00
2018-05-27T00:33:12.783Z,93.80
2018-05-27T00:35:40.439Z,93.80
2018-05-27T00:38:08.060Z,94.10
2018-05-27T00:40:36.451Z,94.20
2018-05-27T00:43:04.810Z,94.40
2018-05-27T00:45:32.357Z,94.40
2018-05-27T00:47:59.997Z,94.50
2018-05-27T00:50:27.586Z,94.60
2018-05-27T00:52:55.514Z,94.50
2018-05-27T00:55:23.052Z,94.70
2018-05-27T00:57:50.648Z,94.50
2018-05-27T01:00:18.189Z,93.90
2018-05-27T01:02:45.742Z,94.50
2018-05-27T01:05:13.354Z,94.60
2018-05-27T01:07:40.920Z,94.60
2018-05-27T01:10:09.271Z,94.70
2018-05-27T01:12:36.825Z,94.40
2018-05-27T01:15:04.426Z,94.70
2018-05-27T01:17:31.987Z,94.80
2018-05-27T01:20:00.871Z,94.90
2018-05-27T01:22:28.436Z,94.90
2018-05-27T01:24:56.097Z,94.90
2018-05-27T01:27:23.639Z,95.00
2018-05-27T01:29:51.184Z,94.90
2018-05-27T01:32:18.768Z,95.10
2018-05-27T01:34:46.584Z,95.00
2018-05-27T01:37:14.343Z,94.90
2018-05-27T01:39:41.918Z,95.00
2018-05-27T01:42:09.492Z,95.10
2018-05-27T01:44:37.049Z,95.20
2018-05-27T01:47:04.626Z,95.20
2018-05-27T01:49:32.322Z,95.20
2018-05-27T01:51:59.919Z,95.00
2018-05-27T01:54:27.497Z,95.00
2018-05-27T01:56:55.117Z,95.00
2018-05-27T01:59:22.776Z,95.30
2018-05-27T02:01:50.460Z,95.20
2018-05-27T02:04:18.041Z,95.40
2018-05-27T02:06:45.593Z,95.40
2018-05-27T02:09:13.236Z,95.40
2018-05-27T02:11:40.797Z,95.40
2018-05-27T02:14:08.387Z,95.60
2018-05-27T02:16:36.012Z,95.40
2018-05-27T02:19:03.604Z,94.30
2018-05-27T02:21:31.165Z,95.40
2018-05-27T02:23:58.749Z,95.60
2018-05-27T02:28:58.797Z,95.80
2018-05-27T02:31:26.512Z,95.60
2018-05-27T02:33:54.060Z,95.80
2018-05-27T02:36:21.655Z,95.80
2018-05-27T02:38:50.124Z,95.80
2018-05-27T02:41:17.709Z,95.40
2018-05-27T02:43:45.293Z,95.50
2018-05-27T02:46:12.869Z,95.50
2018-05-27T02:48:40.428Z,95.50
2018-05-27T02:51:08.044Z,95.60
2018-05-27T02:53:36.352Z,95.50
2018-05-27T02:56:03.925Z,95.50
2018-05-27T02:58:31.505Z,95.10
2018-05-27T03:00:59.106Z,95.10
2018-05-27T03:03:26.648Z,95.00
2018-05-27T03:05:55.252Z,95.40
2018-05-27T03:08:22.811Z,95.30
2018-05-27T03:10:50.398Z,95.20
2018-05-27T03:13:17.982Z,95.30
2018-05-27T03:15:45.544Z,95.00
2018-05-27T03:18:13.217Z,94.40
2018-05-27T03:20:40.772Z,94.90
2018-05-27T03:23:08.359Z,95.00
2018-05-27T03:25:36.693Z,95.20
2018-05-27T03:28:04.250Z,95.20
2018-05-27T03:30:31.805Z,95.20
2018-05-27T03:32:59.549Z,95.10
2018-05-27T03:35:27.148Z,94.80
2018-05-27T03:37:55.520Z,94.80
2018-05-27T03:40:23.149Z,94.90
2018-05-27T03:42:50.723Z,94.90
2018-05-27T03:45:18.288Z,95.10
2018-05-27T03:47:45.853Z,95.30
2018-05-27T03:50:13.576Z,95.40
2018-05-27T03:52:41.114Z,95.40
2018-05-27T03:55:09.429Z,94.60
2018-05-27T03:57:36.988Z,94.60
2018-05-27T04:00:04.548Z,94.50
2018-05-27T04:02:32.360Z,94.40
2018-05-27T04:05:11.745Z,94.30
2018-05-27T04:07:51.035Z,94.40
2018-05-27T04:10:18.609Z,94.20
2018-05-27T04:12:46.300Z,94.10
2018-05-27T04:15:13.877Z,94.00
2018-05-27T04:17:41.432Z,93.80
2018-05-27T04:20:08.972Z,93.70
2018-05-27T04:22:36.549Z,92.90
2018-05-27T04:25:04.080Z,93.40
2018-05-27T04:27:31.636Z,93.40
2018-05-27T04:29:59.192Z,93.30
2018-05-27T04:32:27.656Z,92.80
2018-05-27T04:34:55.979Z,92.80
2018-05-27T04:37:23.549Z,92.80
2018-05-27T04:39:51.117Z,92.80
2018-05-27T04:42:18.835Z,92.70
2018-05-27T04:44:47.171Z,91.60
2018-05-27T04:47:14.762Z,91.60
2018-05-27T04:49:42.320Z,91.60
2018-05-27T04:52:10.801Z,91.00
2018-05-27T04:54:39.135Z,90.90
2018-05-27T04:57:06.701Z,90.90
2018-05-27T04:59:34.265Z,91.00
2018-05-27T05:02:01.822Z,91.00
2018-05-27T05:04:29.374Z,91.00
2018-05-27T05:06:56.950Z,90.70
2018-05-27T05:09:24.619Z,90.60
2018-05-27T05:11:52.161Z,90.50
2018-05-27T05:14:19.691Z,90.30
2018-05-27T05:16:47.263Z,90.30
2018-05-27T05:19:14.814Z,90.20
2018-05-27T05:21:42.383Z,90.00
2018-05-27T05:24:10.111Z,88.40
2018-05-27T05:26:37.675Z,88.30
2018-05-27T05:29:05.250Z,88.40
2018-05-27T05:31:32.900Z,88.50
2018-05-27T05:34:00.479Z,88.50
2018-05-27T05:36:28.048Z,88.00
2018-05-27T05:38:55.618Z,87.20
2018-05-27T05:41:23.181Z,86.90
2018-05-27T05:43:50.841Z,86.20
2018-05-27T05:46:18.502Z,86.20
2018-05-27T05:48:46.097Z,85.80
2018-05-27T05:51:13.651Z,85.30
2018-05-27T05:53:42.109Z,84.10
2018-05-27T05:56:09.999Z,84.10
2018-05-27T05:58:38.308Z,83.20
2018-05-27T06:01:05.877Z,83.20
2018-05-27T06:03:33.444Z,82.80
2018-05-27T06:06:01.029Z,81.80
2018-05-27T06:08:28.584Z,81.50
2018-05-27T06:10:56.156Z,80.90
2018-05-27T06:13:23.732Z,80.00
2018-05-27T06:15:51.327Z,79.10
2018-05-27T06:18:19.088Z,78.40
2018-05-27T06:20:46.747Z,78.00
2018-05-27T06:23:14.304Z,77.60
2018-05-27T06:25:41.943Z,77.20
2018-05-27T06:28:09.465Z,75.60
2018-05-27T06:30:37.107Z,74.80
2018-05-27T06:33:04.676Z,74.20
2018-05-27T06:35:32.220Z,74.20
2018-05-27T06:37:59.877Z,72.70
2018-05-27T06:40:27.424Z,72.50
2018-05-27T06:42:55.085Z,71.20
2018-05-27T06:45:22.792Z,70.40
2018-05-27T06:47:50.359Z,68.80
2018-05-27T06:50:17.922Z,65.40
2018-05-27T06:52:45.490Z,66.50
2018-05-27T06:55:13.076Z,65.70
2018-05-27T06:57:41.412Z,62.00
2018-05-27T07:00:10.457Z,61.50
2018-05-27T07:02:38.044Z,61.50
2018-05-27T07:05:05.820Z,60.10
2018-05-27T07:07:34.159Z,61.10
2018-05-27T07:10:01.760Z,61.10
2018-05-27T07:12:29.507Z,57.40
2018-05-27T07:14:57.056Z,56.60
2018-05-27T07:17:24.603Z,56.90
2018-05-27T07:19:52.199Z,57.10
2018-05-27T07:22:19.769Z,58.10
2018-05-27T07:24:47.345Z,58.00
2018-05-27T07:27:14.884Z,58.00
2018-05-27T07:29:42.440Z,57.60
2018-05-27T07:32:10.875Z,57.20
2018-05-27T07:34:38.456Z,57.10
2018-05-27T07:37:06.013Z,56.30
2018-05-27T07:39:33.560Z,56.00
2018-05-27T07:42:01.161Z,55.60
2018-05-27T07:44:29.496Z,54.80
2018-05-27T07:46:57.067Z,54.80
2018-05-27T07:49:24.633Z,53.70
2018-05-27T07:51:52.190Z,53.70
2018-05-27T07:54:19.816Z,53.70
2018-05-27T07:56:47.395Z,52.20
2018-05-27T07:59:14.965Z,52.60
2018-05-27T08:01:42.555Z,51.20
2018-05-27T08:04:10.253Z,48.90
2018-05-27T08:06:37.857Z,48.80
2018-05-27T08:09:06.382Z,48.40
2018-05-27T08:11:34.700Z,46.80
2018-05-27T08:14:02.339Z,46.80
2018-05-27T08:16:30.092Z,46.80
2018-05-27T08:18:57.768Z,45.00
2018-05-27T08:21:25.641Z,45.80
2018-05-27T08:23:53.199Z,44.60
2018-05-27T08:26:20.785Z,45.00
2018-05-27T08:28:48.371Z,42.70
2018-05-27T08:31:16.043Z,44.10
2018-05-27T08:33:43.592Z,44.60
2018-05-27T08:36:11.236Z,42.80
2018-05-27T08:38:38.789Z,41.50
2018-05-27T08:41:06.473Z,41.20
2018-05-27T08:43:34.084Z,39.20
2018-05-27T08:46:02.433Z,38.70
2018-05-27T08:48:30.137Z,39.20
2018-05-27T08:50:57.781Z,37.80
2018-05-27T08:53:25.363Z,38.60
2018-05-27T08:55:52.936Z,38.60
2018-05-27T08:58:20.562Z,36.70
2018-05-27T09:00:48.153Z,36.70
2018-05-27T09:03:15.740Z,37.00
2018-05-27T09:05:43.329Z,37.50
2018-05-27T09:08:10.908Z,37.80
2018-05-27T09:10:38.495Z,35.90
2018-05-27T09:13:06.094Z,36.10
2018-05-27T09:15:33.674Z,36.60
2018-05-27T09:18:01.299Z,36.50
2018-05-27T09:20:28.843Z,35.80
2018-05-27T09:22:56.429Z,34.90
2018-05-27T09:25:24.783Z,34.40
2018-05-27T09:27:52.348Z,34.30
2018-05-27T09:30:19.970Z,34.50
2018-05-27T09:32:47.568Z,34.80
2018-05-27T09:35:15.198Z,35.60
2018-05-27T09:37:42.795Z,34.60
2018-05-27T09:40:10.392Z,33.60
2018-05-27T09:42:37.980Z,32.10
2018-05-27T09:45:05.599Z,33.00
2018-05-27T09:47:33.968Z,30.90
2018-05-27T09:50:01.567Z,30.80
2018-05-27T09:52:29.322Z,30.60
2018-05-27T09:54:56.899Z,30.70
2018-05-27T09:57:24.506Z,30.80
2018-05-27T09:59:52.906Z,31.50
2018-05-27T10:02:20.508Z,31.40
2018-05-27T10:04:48.131Z,30.20
2018-05-27T10:07:15.873Z,29.50
2018-05-27T10:09:43.420Z,30.00
2018-05-27T10:12:11.030Z,29.00
2018-05-27T10:14:38.661Z,28.20
2018-05-27T10:17:06.561Z,27.30
2018-05-27T10:19:35.005Z,27.80
2018-05-27T10:22:02.589Z,28.70
2018-05-27T10:24:30.196Z,27.00
2018-05-27T10:26:58.052Z,26.70
2018-05-27T10:29:25.692Z,26.20
2018-05-27T10:31:53.540Z,26.70
2018-05-27T10:34:21.118Z,26.90
2018-05-27T10:36:48.716Z,27.10
2018-05-27T10:39:16.387Z,25.10
2018-05-27T10:41:43.893Z,25.20
2018-05-27T10:44:11.648Z,25.70
2018-05-27T10:46:39.268Z,25.50
2018-05-27T10:49:06.856Z,26.10
2018-05-27T10:51:34.545Z,25.40
2018-05-27T10:54:02.179Z,26.10
2018-05-27T10:56:29.733Z,25.50
2018-05-27T10:58:57.324Z,25.40
2018-05-27T11:01:24.901Z,26.10
2018-05-27T11:03:52.555Z,26.50
2018-05-27T11:06:20.190Z,28.20
2018-05-27T11:08:48.011Z,26.60
2018-05-27T11:11:15.575Z,26.50
2018-05-27T11:13:43.915Z,26.40
2018-05-27T11:16:11.488Z,26.00
2018-05-27T11:18:39.252Z,26.10
2018-05-27T11:21:06.808Z,26.50
2018-05-27T11:23:34.401Z,25.80
2018-05-27T11:26:01.957Z,25.60
2018-05-27T11:28:30.483Z,25.80
2018-05-27T11:30:58.066Z,25.80
2018-05-27T11:33:25.657Z,25.50
2018-05-27T11:35:53.355Z,25.80
2018-05-27T11:38:20.920Z,25.40
2018-05-27T11:40:48.476Z,25.50
2018-05-27T11:43:16.052Z,25.10
2018-05-27T11:45:43.651Z,24.60
2018-05-27T11:48:12.293Z,25.20
2018-05-27T11:50:40.885Z,26.40
2018-05-27T11:53:08.453Z,26.30
2018-05-27T11:55:36.059Z,24.80
2018-05-27T11:58:03.751Z,25.40
2018-05-27T12:00:31.353Z,26.70
2018-05-27T12:02:58.932Z,27.70
2018-05-27T12:05:27.311Z,28.60
2018-05-27T12:07:54.945Z,28.70
2018-05-27T12:10:22.565Z,29.20
2018-05-27T12:12:50.149Z,28.20
2018-05-27T12:15:17.817Z,28.30
2018-05-27T12:17:45.459Z,27.50
2018-05-27T12:20:13.024Z,26.90
2018-05-27T12:22:40.641Z,26.50
2018-05-27T12:25:08.992Z,26.10
2018-05-27T12:27:38.165Z,25.20
2018-05-27T12:30:05.825Z,25.20
2018-05-27T12:32:34.277Z,24.70
2018-05-27T12:35:01.904Z,24.80
2018-05-27T12:37:30.349Z,25.70
2018-05-27T12:39:57.913Z,25.70
2018-05-27T12:42:25.722Z,26.10
2018-05-27T12:44:53.341Z,26.50
2018-05-27T12:47:20.933Z,27.80
2018-05-27T12:49:48.605Z,28.80
2018-05-27T12:52:16.704Z,30.00
2018-05-27T12:54:44.297Z,30.00
2018-05-27T12:57:12.108Z,31.70
2018-05-27T12:59:39.708Z,32.20
2018-05-27T13:02:07.324Z,33.80
2018-05-27T13:04:35.686Z,34.80
2018-05-27T13:07:04.785Z,36.10
2018-05-27T13:09:32.597Z,36.10
2018-05-27T13:12:00.942Z,39.70
2018-05-27T13:14:30.132Z,39.70
2018-05-27T13:16:58.763Z,41.60
2018-05-27T13:19:26.121Z,41.60
2018-05-27T13:21:53.733Z,42.00
2018-05-27T13:24:22.104Z,44.60
2018-05-27T13:26:49.719Z,44.50
2018-05-27T13:29:17.303Z,45.60
2018-05-27T13:31:44.885Z,46.50
2018-05-27T13:34:13.403Z,47.00
2018-05-27T13:36:41.125Z,47.00
2018-05-27T13:39:08.931Z,46.70
2018-05-27T13:41:36.526Z,47.50
2018-05-27T13:44:04.329Z,48.90
2018-05-27T13:46:32.829Z,50.00
2018-05-27T13:49:00.469Z,50.10
2018-05-27T13:51:29.099Z,55.60
2018-05-27T13:53:56.723Z,55.60
2018-05-27T13:56:24.386Z,56.60
2018-05-27T13:58:52.785Z,54.70
2018-05-27T14:01:20.384Z,54.70
2018-05-27T14:03:47.962Z,58.80
2018-05-27T14:06:15.557Z,62.30
2018-05-27T14:08:43.410Z,66.30
2018-05-27T14:11:11.766Z,85.40
2018-05-27T14:13:39.398Z,85.30
2018-05-27T14:16:06.954Z,90.30
2018-05-27T14:18:34.563Z,91.90
2018-05-27T14:21:02.165Z,94.20
2018-05-27T14:23:29.756Z,93.70
2018-05-27T14:25:57.440Z,95.60
2018-05-27T14:28:25.799Z,97.50
2018-05-27T14:30:53.362Z,97.40
2018-05-27T14:33:21.052Z,96.50
2018-05-27T14:35:48.613Z,97.40
2018-05-27T14:38:16.267Z,98.70
2018-05-27T14:40:43.889Z,99.90
2018-05-27T14:43:11.506Z,99.90
2018-05-27T14:45:39.099Z,98.30
2018-05-27T14:48:06.740Z,99.30
2018-05-27T14:50:34.415Z,98.50
2018-05-27T14:53:02.199Z,99.20
2018-05-27T14:55:29.850Z,99.90
2018-05-27T14:57:57.483Z,99.90
2018-05-27T15:00:25.869Z,98.30
2018-05-27T15:02:53.652Z,98.30
2018-05-27T15:05:21.431Z,98.60
2018-05-27T15:07:49.057Z,97.50
2018-05-27T15:10:17.164Z,96.10
2018-05-27T15:12:44.779Z,94.60
2018-05-27T15:15:12.549Z,93.10
2018-05-27T15:17:40.319Z,95.70
2018-05-27T15:20:08.134Z,96.20
2018-05-27T15:22:35.798Z,95.30
2018-05-27T15:25:03.398Z,95.00
2018-05-27T15:27:31.027Z,97.10
2018-05-27T15:29:59.414Z,97.20
2018-05-27T15:32:27.583Z,97.20
2018-05-27T15:34:55.991Z,95.50
2018-05-27T15:37:23.612Z,95.50
2018-05-27T15:39:51.348Z,94.70
2018-05-27T15:42:18.961Z,95.90
2018-05-27T15:44:46.844Z,95.90
2018-05-27T15:47:14.424Z,94.70
2018-05-27T15:49:42.088Z,94.30
2018-05-27T15:52:09.748Z,94.00
2018-05-27T15:54:37.368Z,94.40
2018-05-27T15:57:05.008Z,92.70
2018-05-27T15:59:33.353Z,94.80
2018-05-27T16:02:00.941Z,94.80
2018-05-27T16:04:28.613Z,95.60
2018-05-27T16:06:56.194Z,95.60
2018-05-27T16:09:23.789Z,95.00
2018-05-27T16:11:51.618Z,96.80
2018-05-27T16:14:19.395Z,95.50
2018-05-27T16:16:47.252Z,93.50
2018-05-27T16:19:15.045Z,95.20
2018-05-27T16:21:42.911Z,95.80
2018-05-27T16:24:10.809Z,95.50
2018-05-27T16:26:38.480Z,94.00
2018-05-27T16:29:06.084Z,93.70
2018-05-27T16:31:33.712Z,93.70
2018-05-27T16:34:02.169Z,92.40
2018-05-27T16:36:29.802Z,92.40
2018-05-27T16:38:57.589Z,93.20
2018-05-27T16:41:25.210Z,93.60
2018-05-27T16:43:52.876Z,92.60
2018-05-27T16:46:20.530Z,93.40
2018-05-27T16:48:48.190Z,93.30
2018-05-27T16:51:15.803Z,93.10
2018-05-27T16:53:43.468Z,92.10
2018-05-27T16:56:11.052Z,90.10
2018-05-27T16:58:38.670Z,86.80
2018-05-27T17:01:06.294Z,84.50
2018-05-27T17:03:33.854Z,84.60
2018-05-27T17:06:01.587Z,83.30
2018-05-27T17:08:29.989Z,85.30
2018-05-27T17:10:57.880Z,85.30
2018-05-27T17:13:25.461Z,84.60
2018-05-27T17:15:53.263Z,82.90
2018-05-27T17:18:20.832Z,82.50
2018-05-27T17:20:48.414Z,82.70
2018-05-27T17:23:16.245Z,83.80
2018-05-27T17:25:44.687Z,83.10
2018-05-27T17:28:12.334Z,83.00
2018-05-27T17:30:40.099Z,83.60
2018-05-27T17:33:07.859Z,84.10
2018-05-27T17:35:35.554Z,84.30
2018-05-27T17:38:03.175Z,83.60
2018-05-27T17:40:30.846Z,87.10
2018-05-27T17:42:58.583Z,85.10
2018-05-27T17:45:26.253Z,86.70
2018-05-27T17:47:55.663Z,87.90
2018-05-27T17:50:23.339Z,90.00
2018-05-27T17:52:50.933Z,90.00
2018-05-27T17:55:18.630Z,90.60
2018-05-27T17:57:46.211Z,91.00
2018-05-27T18:00:13.989Z,91.60
2018-05-27T18:02:41.564Z,92.10
2018-05-27T18:05:09.157Z,92.20
2018-05-27T18:07:37.063Z,92.40
2018-05-27T18:10:04.714Z,92.70
2018-05-27T18:12:32.354Z,93.20
2018-05-27T18:15:00.036Z,93.40
2018-05-27T18:17:27.795Z,93.80
2018-05-27T18:19:55.404Z,94.10
2018-05-27T18:22:23.757Z,94.50
2018-05-27T18:24:51.591Z,94.50
2018-05-27T18:27:19.261Z,94.10
2018-05-27T18:29:47.000Z,94.00
2018-05-27T18:32:14.790Z,94.40
2018-05-27T18:34:43.555Z,94.80
2018-05-27T18:37:11.369Z,95.10
2018-05-27T18:39:38.968Z,95.20
2018-05-27T18:42:06.612Z,95.70
2018-05-27T18:44:34.288Z,96.10
2018-05-27T18:47:01.900Z,96.10
2018-05-27T18:49:29.608Z,95.70
2018-05-27T18:51:58.240Z,95.40
2018-05-27T18:54:25.848Z,95.40
2018-05-27T18:56:53.494Z,95.20
2018-05-27T18:59:21.135Z,94.90
2018-05-27T19:01:48.745Z,95.40
2018-05-27T19:04:17.288Z,95.30
2018-05-27T19:06:45.945Z,95.30
2018-05-27T19:09:13.552Z,95.30
2018-05-27T19:11:41.464Z,95.90
2018-05-27T19:14:09.126Z,96.10
2018-05-27T19:16:36.774Z,96.30
2018-05-27T19:19:04.374Z,96.70
2018-05-27T19:21:32.282Z,96.30
2018-05-27T19:24:00.059Z,96.50
2018-05-27T19:26:28.429Z,96.70
2018-05-27T19:28:56.086Z,96.40
2018-05-27T19:31:23.787Z,96.70
2018-05-27T19:33:51.373Z,97.00
2018-05-27T19:36:18.935Z,97.60
2018-05-27T19:38:46.565Z,97.90
2018-05-27T19:41:14.215Z,98.00
2018-05-27T19:43:41.875Z,98.00
2018-05-27T19:46:09.504Z,97.50
2018-05-27T19:48:37.855Z,97.90
2018-05-27T19:51:05.629Z,97.80
2018-05-27T19:53:33.219Z,97.90
2018-05-27T19:56:01.602Z,97.90
2018-05-27T19:58:29.456Z,97.90
2018-05-27T20:00:57.374Z,97.90
2018-05-27T20:03:24.996Z,97.80
2018-05-27T20:05:52.716Z,97.80
2018-05-27T20:08:20.456Z,98.00
2018-05-27T20:10:48.161Z,98.40
2018-05-27T20:13:16.018Z,98.40
2018-05-27T20:15:43.681Z,98.40
2018-05-27T20:18:11.295Z,98.50
2018-05-27T20:20:39.140Z,98.40
2018-05-27T20:23:07.553Z,98.30
2018-05-27T20:25:35.205Z,98.30
2018-05-27T20:28:02.892Z,98.40
2018-05-27T20:30:30.611Z,98.70
2018-05-27T20:32:58.232Z,98.60
2018-05-27T20:35:25.939Z,98.60
2018-05-27T20:37:53.711Z,98.90
2018-05-27T20:40:21.286Z,98.70
2018-05-27T20:42:48.964Z,99.30
2018-05-27T20:45:16.711Z,98.90
2018-05-27T20:47:44.483Z,98.70
2018-05-27T20:50:12.105Z,99.00
2018-05-27T20:52:39.756Z,99.10
2018-05-27T20:55:08.116Z,98.70
2018-05-27T20:57:35.701Z,98.70
2018-05-27T21:00:04.135Z,98.50
2018-05-27T21:02:31.750Z,98.50
2018-05-27T21:04:59.321Z,98.70
2018-05-27T21:07:27.048Z,98.70
2018-05-27T21:09:55.482Z,99.30
2018-05-27T21:12:23.235Z,99.30
2018-05-27T21:14:50.830Z,99.00
2018-05-27T21:17:18.438Z,99.20
2018-05-27T21:19:46.107Z,99.30
2018-05-27T21:22:13.975Z,99.40
2018-05-27T21:24:41.605Z,99.50
2018-05-27T21:27:09.274Z,98.60
2018-05-27T21:29:36.873Z,98.70
2018-05-27T21:32:04.457Z,98.70
2018-05-27T21:34:32.225Z,98.80
2018-05-27T21:36:59.828Z,99.30
2018-05-27T21:39:28.241Z,99.80
2018-05-27T21:41:56.076Z,99.80
2018-05-27T21:44:23.691Z,99.90
2018-05-27T21:46:51.305Z,99.90
2018-05-27T21:49:18.916Z,99.90
2018-05-27T21:51:46.539Z,99.90
2018-05-27T21:54:14.118Z,99.90
2018-05-27T21:56:41.702Z,99.90
2018-05-27T21:59:09.374Z,99.90
2018-05-27T22:01:37.744Z,99.90
2018-05-27T22:04:05.524Z,99.90
2018-05-27T22:06:33.867Z,99.90
2018-05-27T22:09:01.468Z,99.90
2018-05-27T22:11:29.783Z,99.90
2018-05-27T22:13:57.465Z,99.90
2018-05-27T22:16:26.559Z,99.90
2018-05-27T22:18:54.265Z,99.90
2018-05-27T22:21:21.941Z,99.90
2018-05-27T22:23:49.538Z,99.90
2018-05-27T22:26:17.219Z,99.90
2018-05-27T22:28:44.804Z,99.90
2018-05-27T22:31:12.398Z,99.90
2018-05-27T22:33:39.962Z,99.90
2018-05-27T22:36:07.600Z,99.80
2018-05-27T22:38:35.170Z,99.10
2018-05-27T22:41:02.778Z,99.50
2018-05-27T22:43:30.493Z,99.40
2018-05-27T22:45:58.064Z,99.70
2018-05-27T22:48:25.645Z,99.50
2018-05-27T22:50:53.336Z,99.60
2018-05-27T22:53:21.038Z,99.70
2018-05-27T22:55:48.803Z,99.70
2018-05-27T22:58:16.371Z,99.90
2018-05-27T23:00:43.981Z,99.70
2018-05-27T23:03:11.531Z,99.50
2018-05-27T23:05:39.097Z,99.60
2018-05-27T23:08:06.697Z,99.70
2018-05-27T23:10:34.295Z,99.80
2018-05-27T23:13:01.872Z,99.90
2018-05-27T23:15:29.685Z,99.90
2018-05-27T23:17:57.264Z,99.70
2018-05-27T23:20:25.052Z,99.70
2018-05-27T23:22:52.612Z,99.70
2018-05-27T23:25:20.219Z,99.60
2018-05-27T23:27:47.821Z,99.70
2018-05-27T23:30:15.388Z,99.80
2018-05-27T23:32:42.961Z,99.90
2018-05-27T23:35:10.668Z,99.90
2018-05-27T23:37:38.426Z,99.90
2018-05-27T23:40:06.196Z,99.20
2018-05-27T23:42:33.767Z,98.90
2018-05-27T23:45:01.346Z,99.30
2018-05-27T23:47:28.932Z,99.20
2018-05-27T23:49:59.556Z,99.50
2018-05-27T23:52:27.216Z,99.50
2018-05-27T23:54:54.803Z,99.60
2018-05-27T23:57:22.407Z,99.70
2018-05-27T23:59:50.000Z,99.90
